Time;durP1;ratioP1;P1;durP2;ratioP2;P2;SDS_P1;SDS_P2;PMS_P1;PMS_P2;Temp;Humidity;BMP_temperature;BMP_pressure;BME280_temperature;BME280_humidity;BME280_pressure;Samples;Min_cycle;Max_cycle;Signal;HPM_P1;HPM_P2
2022/06/27 00:00:43;;;;;;;8.00;5.40;;;;;;;18.09;100.00;-19955.78;5070550;28;20021;-80
2022/06/27 00:03:08;;;;;;;7.28;5.13;;;;;;;18.13;100.00;-18964.13;5072983;28;20035;-80
2022/06/27 00:05:34;;;;;;;9.00;5.28;;;;;;;18.16;100.00;-17640.97;5090986;28;20024;-81
2022/06/27 00:07:59;;;;;;;7.25;5.43;;;;;;;18.12;100.00;-17640.31;5082204;28;20029;-80
2022/06/27 00:10:24;;;;;;;9.10;5.22;;;;;;;18.07;100.00;-18632.28;5055820;28;20209;-81
2022/06/27 00:13:00;;;;;;;7.95;5.40;;;;;;;18.04;100.00;-20946.84;5074233;28;20032;-81
2022/06/27 00:15:26;;;;;;;7.57;5.45;;;;;;;18.01;100.00;-21607.47;5088268;28;20032;-78
2022/06/27 00:17:52;;;;;;;8.40;5.25;;;;;;;17.94;100.00;-23588.56;5073243;28;20029;-79
2022/06/27 00:20:17;;;;;;;9.30;5.20;;;;;;;17.91;100.00;-24908.91;5072591;28;20021;-79
2022/06/27 00:22:47;;;;;;;10.30;5.70;;;;;;;17.89;100.00;-24908.38;5073844;28;20111;-79
2022/06/27 00:25:12;;;;;;;8.43;6.00;;;;;;;17.84;100.00;-25567.28;5088360;28;20016;-78
2022/06/27 00:27:38;;;;;;;7.05;5.53;;;;;;;17.86;100.00;-25569.94;5088029;28;20059;-78
2022/06/27 00:30:04;;;;;;;12.80;5.88;;;;;;;17.88;100.00;-25570.38;5072966;28;20111;-80
2022/06/27 00:32:31;;;;;;;8.25;6.18;;;;;;;17.92;100.00;-25571.53;5072144;28;20082;-79
2022/06/27 00:34:56;;;;;;;8.55;6.13;;;;;;;17.83;100.00;-25568.94;5075072;28;20484;-80
2022/06/27 00:37:22;;;;;;;7.55;5.70;;;;;;;17.92;100.00;-25571.69;5072525;28;20029;-78
2022/06/27 00:39:48;;;;;;;9.00;5.88;;;;;;;17.97;100.00;-25572.84;5069166;28;20376;-76
2022/06/27 00:42:13;;;;;;;8.50;5.43;;;;;;;18.00;100.00;-25573.72;5068939;28;20120;-76
2022/06/27 00:44:42;;;;;;;11.27;5.60;;;;;;;18.01;100.00;-25574.00;5074408;28;20486;-75
2022/06/27 00:47:10;;;;;;;8.27;5.90;;;;;;;18.01;100.00;-25572.22;5094846;28;20111;-76
2022/06/27 00:49:36;;;;;;;10.23;6.00;;;;;;;17.94;100.00;-25570.34;5079384;28;20020;-76
2022/06/27 00:52:07;;;;;;;9.60;5.47;;;;;;;17.91;100.00;-25571.41;5073968;28;20329;-76
2022/06/27 00:54:37;;;;;;;10.75;5.97;;;;;;;17.87;100.00;-25570.22;5088152;28;20045;-74
2022/06/27 00:57:03;;;;;;;13.90;7.20;;;;;;;17.79;100.00;-25567.91;5081958;28;20024;-79
2022/06/27 00:59:29;;;;;;;11.13;7.40;;;;;;;17.81;100.00;-25568.34;5079465;28;20404;-76
2022/06/27 01:01:56;;;;;;;9.93;7.00;;;;;;;17.76;100.00;-25567.03;5088372;28;20031;-76
2022/06/27 01:04:22;;;;;;;9.60;6.35;;;;;;;17.74;100.00;-25566.47;5093294;28;20054;-76
2022/06/27 01:06:54;;;;;;;11.80;7.50;;;;;;;17.69;100.00;-25565.00;5094006;28;20024;-76
2022/06/27 01:09:21;;;;;;;11.57;7.68;;;;;;;17.70;100.00;-25565.31;5058034;28;20410;-76
2022/06/27 01:11:48;;;;;;;10.55;8.55;;;;;;;17.67;100.00;-25564.44;5090505;28;20487;-77
2022/06/27 01:14:15;;;;;;;13.90;8.32;;;;;;;17.68;100.00;-25564.72;5082210;28;20112;-75
2022/06/27 01:16:40;;;;;;;12.90;8.68;;;;;;;17.59;100.00;-25562.25;5089085;28;20028;-76
2022/06/27 01:19:12;;;;;;;12.65;8.93;;;;;;;17.66;100.00;-25564.16;5077645;28;20024;-76
2022/06/27 01:21:45;;;;;;;12.50;9.10;;;;;;;17.63;100.00;-25563.41;5078762;28;20030;-77
2022/06/27 01:24:12;;;;;;;13.15;9.25;;;;;;;17.50;100.00;-25559.81;5085216;28;20055;-74
2022/06/27 01:26:37;;;;;;;13.10;9.13;;;;;;;17.47;100.00;-25558.94;5091896;28;20127;-76
2022/06/27 01:29:04;;;;;;;14.52;9.60;;;;;;;17.54;100.00;-25560.81;5091580;28;20100;-76
2022/06/27 01:31:31;;;;;;;14.05;10.32;;;;;;;17.51;100.00;-25560.09;5079496;28;20513;-75
2022/06/27 01:33:57;;;;;;;15.02;9.18;;;;;;;17.53;100.00;-25560.53;5074578;28;20519;-78
2022/06/27 01:39:09;;;;;;;14.30;10.05;;;;;;;17.39;100.00;-25556.63;5097793;28;20536;-76
2022/06/27 01:41:35;;;;;;;15.05;10.65;;;;;;;17.37;100.00;-25556.03;5078251;28;20024;-79
2022/06/27 01:44:03;;;;;;;14.70;10.27;;;;;;;17.39;100.00;-25556.75;5074849;28;20468;-77
2022/06/27 01:46:44;;;;;;;15.30;9.93;;;;;;;17.33;100.00;-25555.00;5091770;28;20081;-77
2022/06/27 01:49:11;;;;;;;13.00;10.02;;;;;;;17.31;100.00;-25554.44;5081556;28;20032;-79
2022/06/27 01:51:38;;;;;;;18.00;10.60;;;;;;;17.27;100.00;-25553.13;5095623;28;20024;-78
2022/06/27 01:54:09;;;;;;;13.88;10.30;;;;;;;17.26;100.00;-25552.84;5095011;28;20107;-75
2022/06/27 01:56:37;;;;;;;14.88;10.45;;;;;;;17.29;100.00;-25553.72;5076732;28;20032;-77
2022/06/27 01:59:02;;;;;;;15.93;10.93;;;;;;;17.23;100.00;-25552.13;5089047;28;20035;-80
2022/06/27 02:01:28;;;;;;;14.60;9.88;;;;;;;17.23;100.00;-25552.25;5074851;28;20033;-79
2022/06/27 02:03:57;;;;;;;15.25;10.32;;;;;;;17.25;100.00;-25552.56;5086090;28;20028;-77
2022/06/27 02:06:23;;;;;;;15.52;10.30;;;;;;;17.26;100.00;-25552.84;5060794;28;20128;-77
2022/06/27 02:08:53;;;;;;;15.18;9.90;;;;;;;17.16;100.00;-25550.22;5084822;28;20016;-80
2022/06/27 02:11:19;;;;;;;16.27;10.48;;;;;;;17.17;100.00;-25550.53;5084230;28;20119;-76
2022/06/27 02:13:46;;;;;;;17.20;10.13;;;;;;;17.17;100.00;-25550.53;5087935;28;20519;-74
2022/06/27 02:16:14;;;;;;;12.70;9.32;;;;;;;17.23;100.00;-25552.13;5067774;28;20029;-73
2022/06/27 02:18:41;;;;;;;12.88;9.98;;;;;;;17.13;100.00;-25549.38;5068163;28;20038;-74
2022/06/27 02:21:09;;;;;;;14.73;10.45;;;;;;;16.99;100.00;-25545.31;5094217;28;20106;-75
2022/06/27 02:23:35;;;;;;;15.57;10.73;;;;;;;16.93;100.00;-25543.56;5092517;28;20031;-76
2022/06/27 02:26:01;;;;;;;13.52;9.98;;;;;;;16.95;100.00;-25544.28;5092783;28;20384;-74
2022/06/27 02:28:28;;;;;;;14.60;11.60;;;;;;;17.01;100.00;-25545.88;5093095;28;20047;-80
2022/06/27 02:30:55;;;;;;;15.18;10.90;;;;;;;17.03;100.00;-25546.47;5091707;28;20032;-80
2022/06/27 02:33:21;;;;;;;13.73;10.15;;;;;;;17.05;100.00;-25547.03;5087328;28;20066;-80
2022/06/27 02:35:49;;;;;;;14.50;9.88;;;;;;;16.99;100.00;-25545.31;5073178;28;20036;-79
2022/06/27 02:38:16;;;;;;;13.23;9.68;;;;;;;17.00;100.00;-25545.75;5073116;28;20025;-81
2022/06/27 02:40:44;;;;;;;16.00;10.40;;;;;;;16.96;100.00;-25544.44;5077837;28;20048;-80
2022/06/27 02:43:13;;;;;;;12.82;9.50;;;;;;;16.90;100.00;-25542.84;5074525;28;20103;-79
2022/06/27 02:45:40;;;;;;;15.68;10.10;;;;;;;16.80;100.00;-25540.06;5083850;28;20036;-80
2022/06/27 02:48:07;;;;;;;15.00;9.65;;;;;;;16.80;100.00;-25540.06;5093144;28;20028;-79
2022/06/27 02:50:38;;;;;;;11.93;8.98;;;;;;;16.85;100.00;-25541.53;5093161;28;20053;-80
2022/06/27 02:53:09;;;;;;;12.05;9.38;;;;;;;16.83;100.00;-25540.94;5078171;28;20028;-80
2022/06/27 02:55:38;;;;;;;15.20;9.48;;;;;;;16.71;100.00;-25537.47;5092125;28;20053;-79
2022/06/27 02:58:19;;;;;;;12.32;9.02;;;;;;;16.78;100.00;-25539.34;5091406;28;20028;-79
2022/06/27 03:00:48;;;;;;;14.85;9.90;;;;;;;16.74;100.00;-25538.19;5090463;28;20028;-79
2022/06/27 03:03:15;;;;;;;15.52;9.43;;;;;;;16.72;100.00;-25537.75;5089370;28;20033;-80
2022/06/27 03:06:01;;;;;;;14.25;9.70;;;;;;;16.73;100.00;-25538.03;5091844;28;20044;-79
2022/06/27 03:08:40;;;;;;;14.02;9.40;;;;;;;16.73;100.00;-25538.03;5090323;28;20032;-75
2022/06/27 03:11:06;;;;;;;17.02;10.25;;;;;;;16.77;100.00;-25539.06;5082610;28;20025;-75
2022/06/27 03:13:32;;;;;;;14.70;9.73;;;;;;;16.73;100.00;-25538.03;5075834;28;20059;-74
2022/06/27 03:15:57;;;;;;;12.98;9.88;;;;;;;16.68;100.00;-25536.75;5091753;28;20035;-76
2022/06/27 03:18:23;;;;;;;14.38;9.57;;;;;;;16.63;100.00;-25535.28;5091294;28;20032;-75
2022/06/27 03:20:48;;;;;;;15.15;9.30;;;;;;;16.57;100.00;-25533.41;5091138;28;20050;-76
2022/06/27 03:23:15;;;;;;;14.32;10.13;;;;;;;16.50;100.00;-25531.53;5074344;28;20419;-75
2022/06/27 03:25:41;;;;;;;12.85;10.02;;;;;;;16.49;100.00;-25531.38;5082172;28;20047;-76
2022/06/27 03:28:07;;;;;;;14.20;9.95;;;;;;;16.47;100.00;-25530.78;5067299;28;20489;-73
2022/06/27 03:30:32;;;;;;;15.40;10.43;;;;;;;16.47;100.00;-25530.78;5052056;28;20083;-75
2022/06/27 03:32:57;;;;;;;13.02;9.88;;;;;;;16.52;100.00;-25532.09;5050774;28;20032;-75
2022/06/27 03:35:24;;;;;;;14.32;9.23;;;;;;;16.47;100.00;-25530.78;5051835;28;20033;-74
2022/06/27 03:37:50;;;;;;;13.05;9.95;;;;;;;16.36;100.00;-25527.44;5062801;28;20029;-76
2022/06/27 03:40:15;;;;;;;14.70;10.85;;;;;;;16.37;100.00;-25527.88;5057332;28;20071;-75
2022/06/27 03:42:42;;;;;;;12.48;9.40;;;;;;;16.37;100.00;-25527.75;5067760;28;20024;-73
2022/06/27 03:45:08;;;;;;;15.05;10.25;;;;;;;16.41;100.00;-25528.91;5068890;28;20043;-75
2022/06/27 03:47:45;;;;;;;14.82;10.13;;;;;;;16.43;100.00;-25529.63;5070482;28;20032;-74
2022/06/27 03:50:12;;;;;;;15.30;10.23;;;;;;;16.50;100.00;-25531.66;5056007;28;20051;-75
2022/06/27 03:52:40;;;;;;;14.05;9.68;;;;;;;16.62;100.00;-25534.84;5067996;28;20033;-75
2022/06/27 03:55:07;;;;;;;12.85;9.60;;;;;;;16.79;100.00;-25539.78;5064866;28;20033;-77
2022/06/27 03:57:33;;;;;;;13.55;10.30;;;;;;;16.79;100.00;-25539.78;5049518;28;20029;-75
2022/06/27 03:59:58;;;;;;;14.30;10.20;;;;;;;16.86;100.00;-25541.81;5063150;28;20085;-75
2022/06/27 04:02:27;;;;;;;17.42;9.63;;;;;;;17.49;100.00;-25559.38;5070223;28;20505;-75
2022/06/27 04:04:52;;;;;;;11.57;9.32;;;;;;;18.52;100.00;-25588.47;5070114;28;20087;-74
2022/06/27 04:07:17;;;;;;;11.50;9.13;;;;;;;19.63;100.00;-25619.69;5070436;28;20040;-80
2022/06/27 04:09:43;;;;;;;12.27;8.50;;;;;;;20.53;100.00;-25644.91;5060062;28;20173;-79
2022/06/27 04:12:09;;;;;;;13.13;8.02;;;;;;;21.36;100.00;-25667.94;5065283;28;20024;-78
2022/06/27 04:14:34;;;;;;;10.93;7.32;;;;;;;22.19;100.00;-15038.09;5060025;28;20035;-77
2022/06/27 04:17:00;;;;;;;9.73;6.85;;;;;;;22.75;100.00;13417.38;5064115;28;20017;-74
2022/06/27 04:19:26;;;;;;;10.70;6.80;;;;;;;22.41;100.00;47141.66;5049115;28;20370;-75
2022/06/27 04:21:51;;;;;;;8.68;6.65;;;;;;;21.31;100.00;61956.44;5046494;28;20040;-78
2022/06/27 04:24:17;;;;;;;10.68;7.22;;;;;;;20.86;100.00;54450.00;5053715;28;20025;-76
2022/06/27 04:26:42;;;;;;;9.32;7.00;;;;;;;20.38;100.00;40891.81;5049883;28;20033;-78
2022/06/27 04:29:10;;;;;;;10.32;7.40;;;;;;;20.04;100.00;34130.78;5043501;28;20720;-79
2022/06/27 04:31:35;;;;;;;12.65;7.45;;;;;;;19.48;100.00;20336.28;5040366;28;20056;-77
2022/06/27 04:34:03;;;;;;;11.00;7.53;;;;;;;18.90;100.00;8615.63;5040909;28;20082;-79
2022/06/27 04:36:29;;;;;;;10.85;8.10;;;;;;;18.34;100.00;-8030.38;5038800;28;20452;-78
2022/06/27 04:38:55;;;;;;;11.02;8.23;;;;;;;18.16;100.00;-17309.88;5035077;28;20116;-79
2022/06/27 04:41:21;;;;;;;13.25;8.00;;;;;;;18.11;100.00;-22270.91;5050264;28;20032;-78
2022/06/27 04:43:48;;;;;;;11.82;8.20;;;;;;;18.14;100.00;-25577.63;5038039;28;20025;-79
2022/06/27 04:46:13;;;;;;;11.88;8.25;;;;;;;18.12;100.00;-25577.19;5032521;28;20029;-80
2022/06/27 04:48:38;;;;;;;10.80;7.70;;;;;;;17.97;100.00;-25572.84;5030853;28;20433;-79
2022/06/27 04:51:06;;;;;;;9.88;7.90;;;;;;;17.79;100.00;-25567.91;5031590;28;20443;-79
2022/06/27 04:53:33;;;;;;;10.80;7.20;;;;;;;17.79;100.00;-25567.91;5036210;28;20477;-80
2022/06/27 04:55:58;;;;;;;8.90;7.05;;;;;;;17.90;100.00;-25571.09;5052856;28;20401;-79
2022/06/27 04:58:24;;;;;;;10.38;7.60;;;;;;;17.99;100.00;-25573.41;5052554;28;20029;-79
2022/06/27 05:00:49;;;;;;;9.90;7.03;;;;;;;17.93;100.00;-25571.81;5038481;28;20032;-79
2022/06/27 05:03:16;;;;;;;10.38;7.15;;;;;;;17.89;100.00;-25570.81;5034648;28;20060;-76
2022/06/27 05:05:42;;;;;;;10.50;7.22;;;;;;;17.56;100.00;-25561.41;5052322;28;20049;-80
2022/06/27 05:08:07;;;;;;;11.35;7.43;;;;;;;17.40;100.00;-25556.91;5050758;28;20067;-79
2022/06/27 05:10:33;;;;;;;11.85;7.82;;;;;;;17.37;100.00;-25556.19;5050623;28;20017;-80
2022/06/27 05:13:00;;;;;;;13.20;8.40;;;;;;;17.48;100.00;-25559.06;5050441;28;20029;-78
2022/06/27 05:15:25;;;;;;;12.55;8.32;;;;;;;17.67;100.00;-25564.44;5048592;28;20029;-79
2022/06/27 05:17:50;;;;;;;12.80;8.10;;;;;;;17.83;100.00;-25569.06;5050447;28;20025;-78
2022/06/27 05:20:16;;;;;;;12.77;7.85;;;;;;;17.93;100.00;-25571.97;5030931;28;20025;-78
2022/06/27 05:22:46;;;;;;;11.82;7.85;;;;;;;17.97;100.00;-25572.84;5041714;28;20068;-78
2022/06/27 05:25:11;;;;;;;12.57;8.13;;;;;;;18.03;100.00;-25574.56;5051082;28;20102;-79
2022/06/27 05:27:38;;;;;;;12.50;7.80;;;;;;;18.14;100.00;-25577.75;5056024;28;20131;-78
2022/06/27 05:30:05;;;;;;;13.00;7.72;;;;;;;18.14;100.00;-25577.75;5054127;28;20091;-79
2022/06/27 05:32:30;;;;;;;11.63;7.97;;;;;;;18.12;100.00;-25577.31;5087999;28;20412;-78
2022/06/27 05:34:56;;;;;;;12.60;7.90;;;;;;;18.03;100.00;-25574.56;5056132;28;20029;-77
2022/06/27 05:37:21;;;;;;;12.32;8.45;;;;;;;18.13;100.00;-25577.47;5065110;28;20025;-79
2022/06/27 05:39:47;;;;;;;10.63;7.25;;;;;;;18.21;100.00;-25579.78;5065317;28;20036;-76
2022/06/27 05:42:12;;;;;;;12.85;7.85;;;;;;;18.26;100.00;-25581.22;5062892;28;20021;-75
2022/06/27 05:44:38;;;;;;;11.02;7.80;;;;;;;18.32;100.00;-25582.69;5073997;28;20054;-76
2022/06/27 05:47:04;;;;;;;11.20;7.25;;;;;;;18.41;100.00;-25585.28;5061848;28;20025;-78
2022/06/27 05:49:31;;;;;;;13.15;7.38;;;;;;;18.34;100.00;-25583.41;5067774;28;20032;-77
2022/06/27 05:51:57;;;;;;;12.73;7.40;;;;;;;18.24;100.00;-25580.66;5073988;28;20016;-76
2022/06/27 05:54:25;;;;;;;9.40;7.50;;;;;;;18.18;100.00;-25578.91;5073863;28;20431;-77
2022/06/27 05:56:55;;;;;;;13.15;7.90;;;;;;;18.16;100.00;-25578.34;5073507;28;20464;-77
2022/06/27 05:59:22;;;;;;;10.43;8.15;;;;;;;18.11;100.00;-25576.91;5050811;28;20681;-77
2022/06/27 06:01:49;;;;;;;11.65;8.20;;;;;;;18.32;100.00;-25582.81;5053527;28;20469;-76
2022/06/27 06:04:17;;;;;;;10.88;7.72;;;;;;;18.35;100.00;-25583.69;5053747;28;20025;-77
2022/06/27 06:06:43;;;;;;;9.68;7.70;;;;;;;18.31;100.00;-25582.53;5051822;28;20037;-76
2022/06/27 06:09:10;;;;;;;10.98;7.72;;;;;;;18.32;100.00;-25582.81;5053475;28;20021;-77
2022/06/27 06:11:36;;;;;;;10.75;7.80;;;;;;;18.42;100.00;-25585.72;5053043;28;20017;-76
2022/06/27 06:14:13;;;;;;;10.68;7.43;;;;;;;18.40;100.00;-25585.00;5053208;28;20032;-76
2022/06/27 06:16:39;;;;;;;14.40;8.73;;;;;;;18.16;100.00;-25578.34;5053117;28;20078;-75
2022/06/27 06:19:04;;;;;;;12.65;8.50;;;;;;;18.14;100.00;-25577.75;5040916;28;20037;-73
2022/06/27 06:21:31;;;;;;;11.02;8.02;;;;;;;18.17;100.00;-25578.63;5031326;28;20080;-76
2022/06/27 06:23:57;;;;;;;13.52;8.13;;;;;;;18.14;100.00;-25577.75;5032479;28;20052;-79
2022/06/27 06:26:24;;;;;;;15.25;9.07;;;;;;;18.25;100.00;-25580.94;5072379;28;20048;-75
2022/06/27 06:28:49;;;;;;;12.50;8.82;;;;;;;18.36;100.00;-25583.84;5069854;28;20677;-81
2022/06/27 06:31:21;;;;;;;11.85;7.95;;;;;;;18.61;100.00;-25590.94;5072502;28;20025;-74
2022/06/27 06:33:50;;;;;;;10.40;8.48;;;;;;;18.70;100.00;-25593.53;5056666;28;20465;-79
2022/06/27 06:36:16;;;;;;;13.00;8.40;;;;;;;18.61;100.00;-25591.06;5052883;28;20021;-75
2022/06/27 06:38:42;;;;;;;13.48;9.07;;;;;;;18.65;100.00;-25592.09;5051809;28;20041;-73
2022/06/27 06:41:08;;;;;;;11.57;8.60;;;;;;;18.72;100.00;-25593.97;5055754;28;20075;-75
2022/06/27 06:43:35;;;;;;;12.43;9.00;;;;;;;18.61;100.00;-25590.94;5066070;28;20061;-75
2022/06/27 06:46:01;;;;;;;13.15;8.88;;;;;;;18.65;100.00;-25592.09;5052510;28;20744;-74
2022/06/27 06:48:27;;;;;;;11.35;9.05;;;;;;;18.65;100.00;-25592.22;5052835;28;20071;-77
2022/06/27 06:50:54;;;;;;;13.05;8.82;;;;;;;18.75;100.00;-25594.81;5052947;28;20057;-76
2022/06/27 06:53:20;;;;;;;14.13;9.18;;;;;;;18.78;100.00;-25595.69;5062282;28;20115;-72
2022/06/27 06:55:45;;;;;;;12.60;9.23;;;;;;;18.66;100.00;-25592.50;5066886;28;20063;-72
2022/06/27 06:58:11;;;;;;;14.30;9.20;;;;;;;18.68;100.00;-25592.81;5050412;28;20053;-73
2022/06/27 07:00:38;;;;;;;13.48;8.48;;;;;;;18.57;100.00;-25589.91;5049800;28;20028;-75
2022/06/27 07:03:04;;;;;;;13.88;8.68;;;;;;;18.65;100.00;-25592.22;5068034;28;20057;-72
2022/06/27 07:05:31;;;;;;;15.38;8.95;;;;;;;18.71;100.00;-25593.69;5050683;28;20049;-74
2022/06/27 07:07:58;;;;;;;14.05;8.38;;;;;;;18.77;100.00;-25595.56;5033477;28;20029;-72
2022/06/27 07:10:25;;;;;;;13.95;8.40;;;;;;;18.75;100.00;-25594.81;5050884;28;20132;-73
2022/06/27 07:12:51;;;;;;;13.70;8.70;;;;;;;18.56;100.00;-25589.47;5050047;28;20021;-74
2022/06/27 07:15:17;;;;;;;12.80;8.10;;;;;;;18.55;100.00;-25589.34;5050671;28;20454;-76
2022/06/27 07:17:47;;;;;;;12.05;8.10;;;;;;;18.40;100.00;-25585.13;5051662;28;20029;-77
2022/06/27 07:20:15;;;;;;;14.45;8.27;;;;;;;18.39;100.00;-25584.72;5055201;28;20461;-76
2022/06/27 07:22:42;;;;;;;14.82;8.30;;;;;;;18.57;100.00;-25589.78;5056858;28;20132;-76
2022/06/27 07:25:09;;;;;;;11.88;7.90;;;;;;;18.85;100.00;-25597.72;5052218;28;20029;-77
2022/06/27 07:27:35;;;;;;;12.73;7.88;;;;;;;19.00;100.00;-25602.06;5046140;28;20429;-76
2022/06/27 07:30:05;;;;;;;14.35;7.57;;;;;;;19.15;100.00;-25606.09;5032967;28;20025;-77
2022/06/27 07:32:31;;;;;;;12.67;7.33;;;;;;;19.06;100.00;-25603.50;5031852;28;20395;-78
2022/06/27 07:34:58;;;;;;;9.52;6.88;;;;;;;19.14;100.00;-25273.06;5031940;28;20332;-76
2022/06/27 07:37:24;;;;;;;12.48;8.68;;;;;;;18.95;100.00;-23613.91;5031993;28;20033;-77
2022/06/27 07:39:49;;;;;;;13.15;8.85;;;;;;;18.91;100.00;-25599.47;5032950;28;20064;-76
2022/06/27 07:42:16;;;;;;;15.68;8.60;;;;;;;19.12;100.00;-25605.25;5031285;28;20089;-75
2022/06/27 07:44:42;;;;;;;13.40;8.43;;;;;;;19.13;100.00;-25605.66;5031448;28;20021;-75
2022/06/27 07:47:07;;;;;;;14.70;8.35;;;;;;;19.05;100.00;-25603.38;5030989;28;20112;-74
2022/06/27 07:49:33;;;;;;;17.13;8.75;;;;;;;19.06;100.00;-25603.50;5029925;28;20029;-74
2022/06/27 07:51:59;;;;;;;12.68;8.95;;;;;;;18.99;100.00;-25601.78;5030948;28;20039;-76
2022/06/27 07:54:27;;;;;;;13.13;8.77;;;;;;;18.80;100.00;-25596.28;5035616;28;20109;-75
2022/06/27 07:56:53;;;;;;;12.65;9.35;;;;;;;18.81;100.00;-25596.56;5039275;28;20090;-75
2022/06/27 07:59:19;;;;;;;12.40;8.95;;;;;;;18.95;100.00;-25600.63;5050570;28;20029;-75
2022/06/27 08:01:44;;;;;;;12.23;8.93;;;;;;;19.07;100.00;-25603.78;5050881;28;20431;-75
2022/06/27 08:04:12;;;;;;;14.80;9.13;;;;;;;18.87;100.00;-25598.31;5050316;28;20385;-75
2022/06/27 08:06:37;;;;;;;14.68;9.23;;;;;;;19.22;100.00;-25608.13;5051243;28;20115;-75
2022/06/27 08:09:08;;;;;;;14.95;9.68;;;;;;;19.41;100.00;-25613.31;5049242;28;20400;-75
2022/06/27 08:11:42;;;;;;;13.07;8.63;;;;;;;19.41;100.00;-25613.47;5038907;28;20022;-74
2022/06/27 08:14:16;;;;;;;13.05;8.55;;;;;;;19.40;100.00;-25613.03;5030129;28;20043;-74
2022/06/27 08:16:42;;;;;;;13.43;8.35;;;;;;;19.25;100.00;-23621.34;5029961;28;20389;-75
2022/06/27 08:19:09;;;;;;;12.07;7.63;;;;;;;19.27;100.00;-22297.44;5029180;28;20029;-75
2022/06/27 08:21:35;;;;;;;14.40;8.07;;;;;;;19.55;100.00;-21972.50;5029519;28;20029;-76
2022/06/27 08:24:03;;;;;;;11.40;7.75;;;;;;;19.57;100.00;-20978.69;5030451;28;20132;-75
2022/06/27 08:26:30;;;;;;;13.95;8.52;;;;;;;19.40;100.00;-23293.94;5029798;28;20075;-75
2022/06/27 08:28:58;;;;;;;11.55;7.97;;;;;;;19.55;100.00;-23628.94;5049917;28;20041;-75
2022/06/27 08:31:29;;;;;;;10.05;7.28;;;;;;;19.87;100.00;-21648.09;5049446;28;20374;-74
2022/06/27 08:34:01;;;;;;;12.57;7.85;;;;;;;20.00;100.00;-17005.75;5049942;28;20473;-76
2022/06/27 08:36:30;;;;;;;10.70;7.60;;;;;;;20.21;100.00;-11691.34;5050033;28;20416;-76
2022/06/27 08:38:59;;;;;;;11.60;7.45;;;;;;;20.20;100.00;-7365.47;5048502;28;20037;-76
2022/06/27 08:41:25;;;;;;;13.30;8.07;;;;;;;20.30;100.00;-5700.09;5050687;28;20540;-76
2022/06/27 08:44:00;;;;;;;13.32;7.63;;;;;;;20.38;100.00;-5366.63;5047429;28;20559;-77
2022/06/27 08:46:27;;;;;;;10.45;7.47;;;;;;;20.45;100.00;-1365.28;5030363;28;20446;-76
2022/06/27 08:48:52;;;;;;;12.48;7.85;;;;;;;20.48;100.00;2974.38;5030911;28;20026;-75
2022/06/27 08:51:18;;;;;;;9.85;7.80;;;;;;;20.40;100.00;4309.06;5030273;28;20390;-75
2022/06/27 08:53:45;;;;;;;11.70;7.70;;;;;;;20.32;100.00;4307.50;5030551;28;20025;-76
2022/06/27 08:56:15;;;;;;;10.63;7.35;;;;;;;20.35;100.00;5644.47;5030192;28;20067;-76
2022/06/27 08:58:42;;;;;;;;;;;;;;;20.08;100.00;5304.84;5030599;28;20025;-76
2022/06/27 09:01:09;;;;;;;12.52;7.90;;;;;;;20.04;100.00;4970.06;5031888;28;19982;-77
2022/06/27 09:03:36;;;;;;;12.13;7.30;;;;;;;20.00;100.00;4301.38;5063459;28;20029;-75
2022/06/27 09:06:04;;;;;;;12.98;7.45;;;;;;;20.03;100.00;3634.28;5033350;28;20025;-77
2022/06/27 09:08:33;;;;;;;10.70;7.70;;;;;;;20.09;100.00;1299.25;5034841;28;20026;-76
2022/06/27 09:11:00;;;;;;;11.57;7.03;;;;;;;20.00;100.00;1965.22;5034499;28;20040;-76
2022/06/27 09:13:28;;;;;;;12.82;7.43;;;;;;;20.13;100.00;3970.00;5065430;28;20032;-75
2022/06/27 09:16:02;;;;;;;12.13;7.35;;;;;;;20.07;100.00;7643.16;5064001;28;20021;-77
2022/06/27 09:18:38;;;;;;;13.48;7.70;;;;;;;20.04;100.00;7642.41;5074329;28;20029;-75
2022/06/27 09:21:04;;;;;;;11.10;7.22;;;;;;;20.06;100.00;9982.66;5055191;28;20047;-77
2022/06/27 09:23:31;;;;;;;10.48;6.18;;;;;;;20.11;100.00;13329.53;5053783;28;20024;-77
2022/06/27 09:26:05;;;;;;;11.73;6.38;;;;;;;20.01;100.00;23378.31;5054212;28;20031;-76
2022/06/27 09:28:58;;;;;;;10.23;5.57;;;;;;;20.23;100.00;27082.44;5037676;28;20050;-76
2022/06/27 09:31:26;;;;;;;11.02;5.75;;;;;;;20.31;100.00;28431.09;5028843;28;20042;-76
2022/06/27 09:34:03;;;;;;;13.35;6.57;;;;;;;20.65;100.00;30468.63;5033542;28;20108;-76
2022/06/27 09:36:31;;;;;;;9.77;6.95;;;;;;;21.14;100.00;31845.50;5033381;28;20031;-76
2022/06/27 09:38:57;;;;;;;11.70;7.82;;;;;;;21.34;100.00;34216.94;5033829;28;20049;-77
2022/06/27 09:41:26;;;;;;;11.10;7.72;;;;;;;21.15;100.00;39938.44;5033072;28;20492;-77
2022/06/27 09:43:52;;;;;;;15.10;7.35;;;;;;;20.96;100.00;38574.25;5032925;28;20196;-77
2022/06/27 09:46:18;;;;;;;12.35;7.70;;;;;;;20.93;100.00;43972.34;5033606;28;20022;-77
2022/06/27 09:48:45;;;;;;;12.23;7.68;;;;;;;20.58;100.00;44618.94;5032964;28;20048;-77
2022/06/27 09:51:15;;;;;;;11.38;8.63;;;;;;;20.58;100.00;35514.00;5033499;28;20099;-77
2022/06/27 09:53:44;;;;;;;15.40;9.30;;;;;;;20.47;100.00;30794.13;5033094;28;20025;-77
2022/06/27 09:56:13;;;;;;;12.70;8.50;;;;;;;20.63;100.00;23408.88;5032491;28;20032;-76
2022/06/27 09:58:39;;;;;;;13.90;8.73;;;;;;;20.60;100.00;20050.41;5032878;28;20040;-77
2022/06/27 10:01:05;;;;;;;12.48;8.20;;;;;;;20.84;100.00;23418.72;5033038;28;20033;-77
2022/06/27 10:03:31;;;;;;;14.45;8.38;;;;;;;21.02;100.00;33521.94;5031884;28;20138;-77
2022/06/27 10:05:59;;;;;;;11.85;7.85;;;;;;;21.17;100.00;38589.69;5032874;28;20028;-76
2022/06/27 10:08:25;;;;;;;14.20;8.60;;;;;;;20.86;100.00;37892.66;5033021;28;20423;-77
2022/06/27 10:11:00;;;;;;;12.98;7.40;;;;;;;20.75;100.00;44295.31;5031683;28;20465;-77
2022/06/27 10:13:26;;;;;;;13.93;8.30;;;;;;;20.77;100.00;49365.69;5033735;28;20129;-77
2022/06/27 10:15:53;;;;;;;13.00;8.10;;;;;;;20.54;100.00;45290.78;5032102;28;20492;-77
2022/06/27 10:18:18;;;;;;;14.93;8.50;;;;;;;20.27;100.00;38186.91;5031723;28;20060;-77
2022/06/27 10:20:47;;;;;;;11.70;9.15;;;;;;;20.24;100.00;28427.28;5032805;28;20061;-77
2022/06/27 10:23:17;;;;;;;11.50;8.77;;;;;;;20.07;100.00;24723.44;5032871;28;20021;-78
2022/06/27 10:25:44;;;;;;;14.30;8.80;;;;;;;20.07;100.00;19356.78;5033288;28;20026;-77
2022/06/27 10:28:10;;;;;;;12.20;9.07;;;;;;;20.15;100.00;16009.28;5042730;28;20401;-76
2022/06/27 10:30:44;;;;;;;13.68;8.15;;;;;;;20.12;100.00;12995.19;5052328;28;20028;-77
2022/06/27 10:33:23;;;;;;;14.15;8.27;;;;;;;20.07;100.00;13328.16;5053163;28;20029;-77
2022/06/27 10:35:57;;;;;;;12.18;7.70;;;;;;;19.84;100.00;13655.22;5052175;28;20040;-77
2022/06/27 10:38:25;;;;;;;11.07;7.43;;;;;;;19.93;100.00;10313.41;5050937;28;20087;-78
2022/06/27 10:40:52;;;;;;;12.90;7.38;;;;;;;19.93;100.00;11650.94;5051796;28;20543;-78
2022/06/27 10:43:39;;;;;;;13.63;7.70;;;;;;;20.09;100.00;9983.69;5052263;28;20074;-77
2022/06/27 10:46:10;;;;;;;12.65;6.93;;;;;;;20.04;100.00;10316.47;5051749;28;20078;-78
2022/06/27 10:48:37;;;;;;;11.98;7.30;;;;;;;19.99;100.00;5970.84;5051790;28;20473;-79
2022/06/27 10:51:26;;;;;;;14.45;8.30;;;;;;;20.18;100.00;5306.75;5051953;28;20037;-77
2022/06/27 10:54:04;;;;;;;11.02;7.50;;;;;;;20.13;100.00;6976.06;5051414;28;20033;-77
2022/06/27 10:56:29;;;;;;;12.52;7.63;;;;;;;20.30;100.00;7314.25;5052296;28;20029;-78
2022/06/27 10:58:59;;;;;;;10.77;7.13;;;;;;;20.24;100.00;11995.00;5052155;28;20035;-75
2022/06/27 11:01:24;;;;;;;12.10;6.75;;;;;;;20.56;100.00;14684.47;5050791;28;20029;-77
2022/06/27 11:03:53;;;;;;;10.63;7.05;;;;;;;20.64;100.00;22401.75;5051730;28;20037;-77
2022/06/27 11:06:19;;;;;;;13.38;7.25;;;;;;;20.76;100.00;30138.97;5051538;28;20489;-77
2022/06/27 11:08:47;;;;;;;10.38;6.40;;;;;;;20.57;100.00;42930.34;5051594;28;20029;-75
2022/06/27 11:11:20;;;;;;;13.30;6.60;;;;;;;20.47;100.00;52381.13;5038824;28;20034;-75
2022/06/27 11:13:59;;;;;;;12.13;5.80;;;;;;;20.74;100.00;48349.16;5048702;28;20048;-76
2022/06/27 11:16:29;;;;;;;10.60;5.63;;;;;;;20.95;100.00;58524.63;5051407;28;20124;-77